createdAt,value
2024-01-20T00:01:25.645Z,9.98
2024-01-20T00:04:13.735Z,8.25
2024-01-20T00:07:01.392Z,9.57
2024-01-20T00:09:51.766Z,8.27
2024-01-20T00:12:41.865Z,8.70
2024-01-20T00:15:30.714Z,9.68
2024-01-20T00:18:18.489Z,10.80
2024-01-20T00:21:06.731Z,8.80
2024-01-20T00:23:54.490Z,6.40
2024-01-20T00:26:44.071Z,9.93
2024-01-20T00:29:32.083Z,8.50
2024-01-20T00:32:20.117Z,9.45
2024-01-20T00:35:08.736Z,8.25
2024-01-20T00:37:56.983Z,10.05
2024-01-20T00:40:44.704Z,10.63
2024-01-20T00:43:33.490Z,8.70
2024-01-20T00:46:20.835Z,7.68
2024-01-20T00:49:08.303Z,9.93
2024-01-20T00:51:55.952Z,9.10
2024-01-20T00:54:43.624Z,9.40
2024-01-20T00:57:31.718Z,8.63
2024-01-20T01:00:22.879Z,12.02
2024-01-20T01:03:10.693Z,9.00
2024-01-20T01:05:58.574Z,8.30
2024-01-20T01:08:46.342Z,9.15
2024-01-20T01:11:33.937Z,7.68
2024-01-20T01:14:21.692Z,11.15
2024-01-20T01:17:10.984Z,11.68
2024-01-20T01:19:59.246Z,7.65
2024-01-20T01:22:46.815Z,8.80
2024-01-20T01:25:34.479Z,8.60
2024-01-20T01:28:22.180Z,8.23
2024-01-20T01:31:10.688Z,8.77
2024-01-20T01:33:59.412Z,5.97
2024-01-20T01:36:46.893Z,9.15
2024-01-20T01:39:34.291Z,10.43
2024-01-20T01:42:22.009Z,9.20
2024-01-20T01:45:10.990Z,7.05
2024-01-20T01:47:59.302Z,9.48
2024-01-20T01:50:49.751Z,9.00
2024-01-20T01:53:38.480Z,7.80
2024-01-20T01:56:28.423Z,9.52
2024-01-20T01:59:17.489Z,12.32
2024-01-20T02:02:05.128Z,8.68
2024-01-20T02:04:53.056Z,7.25
2024-01-20T02:07:44.621Z,9.15
2024-01-20T02:10:33.263Z,10.43
2024-01-20T02:13:22.797Z,8.45
2024-01-20T02:16:10.486Z,13.73
2024-01-20T02:19:04.385Z,12.48
2024-01-20T02:21:52.308Z,12.02
2024-01-20T02:24:48.348Z,8.77
2024-01-20T02:27:36.063Z,14.45
2024-01-20T02:30:23.663Z,12.45
2024-01-20T02:33:11.561Z,11.07
2024-01-20T02:35:59.186Z,10.18
2024-01-20T02:38:46.631Z,9.95
2024-01-20T02:41:35.445Z,11.05
2024-01-20T02:44:23.826Z,10.35
2024-01-20T02:47:11.142Z,9.05
2024-01-20T02:49:58.798Z,10.13
2024-01-20T02:52:46.612Z,10.27
2024-01-20T02:55:34.573Z,10.45
2024-01-20T02:58:23.526Z,11.30
2024-01-20T03:01:11.331Z,12.07
2024-01-20T03:03:59.097Z,10.27
2024-01-20T03:06:47.190Z,12.65
2024-01-20T03:09:34.967Z,8.93
2024-01-20T03:12:22.657Z,12.55
2024-01-20T03:15:12.236Z,8.32
2024-01-20T03:17:59.908Z,8.55
2024-01-20T03:20:47.657Z,11.55
2024-01-20T03:23:35.880Z,10.68
2024-01-20T03:26:24.377Z,7.28
2024-01-20T03:29:11.917Z,11.30
2024-01-20T03:32:00.824Z,11.55
2024-01-20T03:34:48.619Z,15.82
2024-01-20T03:37:36.233Z,9.23
2024-01-20T03:40:24.143Z,7.97
2024-01-20T03:43:12.091Z,12.55
2024-01-20T03:46:00.142Z,15.13
2024-01-20T03:48:49.428Z,12.98
2024-01-20T03:51:37.107Z,9.32
2024-01-20T03:54:24.832Z,12.57
2024-01-20T03:57:13.010Z,9.93
2024-01-20T04:00:00.682Z,10.93
2024-01-20T04:02:48.603Z,10.82
2024-01-20T04:05:38.191Z,11.02
2024-01-20T04:08:25.962Z,14.40
2024-01-20T04:11:13.664Z,13.05
2024-01-20T04:14:01.401Z,12.10
2024-01-20T04:16:49.757Z,11.57
2024-01-20T04:19:37.370Z,11.32
2024-01-20T04:22:26.182Z,13.77
2024-01-20T04:25:14.994Z,16.70
2024-01-20T04:28:02.852Z,12.60
2024-01-20T04:30:51.750Z,11.43
2024-01-20T04:33:40.675Z,10.80
2024-01-20T04:36:31.531Z,12.70
2024-01-20T04:39:20.426Z,15.00
2024-01-20T04:42:08.700Z,14.60
2024-01-20T04:44:56.356Z,15.70
2024-01-20T04:47:43.928Z,12.18
2024-01-20T04:50:32.097Z,16.63
2024-01-20T04:53:19.722Z,14.98
2024-01-20T04:56:08.953Z,15.80
2024-01-20T04:58:57.715Z,14.00
2024-01-20T05:01:46.414Z,18.85
2024-01-20T05:04:34.061Z,12.85
2024-01-20T05:07:21.596Z,15.75
2024-01-20T05:10:10.109Z,13.30
2024-01-20T05:12:59.231Z,14.25
2024-01-20T05:15:46.851Z,16.83
2024-01-20T05:18:34.603Z,15.75
2024-01-20T05:21:23.391Z,13.90
2024-01-20T05:24:11.359Z,15.48
2024-01-20T05:26:58.857Z,15.82
2024-01-20T05:29:47.837Z,17.77
2024-01-20T05:32:35.613Z,18.92
2024-01-20T05:35:23.520Z,19.27
2024-01-20T05:38:11.084Z,16.17
2024-01-20T05:40:58.672Z,17.95
2024-01-20T05:43:46.205Z,14.43
2024-01-20T05:46:35.234Z,16.10
2024-01-20T05:49:22.928Z,17.45
2024-01-20T05:52:11.501Z,18.58
2024-01-20T05:54:59.351Z,19.95
2024-01-20T05:57:46.913Z,17.33
2024-01-20T06:00:34.753Z,19.73
2024-01-20T06:03:26.690Z,16.48
2024-01-20T06:06:14.805Z,12.93
2024-01-20T06:09:03.840Z,19.02
2024-01-20T06:11:51.823Z,17.77
2024-01-20T06:14:39.918Z,19.45
2024-01-20T06:17:27.659Z,17.55
2024-01-20T06:20:17.591Z,18.13
2024-01-20T06:23:05.608Z,18.17
2024-01-20T06:25:54.558Z,15.00
2024-01-20T06:28:44.235Z,17.02
2024-01-20T06:31:31.934Z,15.90
2024-01-20T06:34:19.886Z,16.40
2024-01-20T06:37:09.603Z,17.73
2024-01-20T06:39:57.455Z,17.10
2024-01-20T06:42:45.139Z,16.17
2024-01-20T06:45:34.797Z,17.85
2024-01-20T06:48:22.790Z,19.50
2024-01-20T06:51:16.445Z,20.50
2024-01-20T06:54:06.772Z,13.38
2024-01-20T06:56:54.256Z,15.40
2024-01-20T06:59:41.660Z,18.75
2024-01-20T07:02:31.467Z,18.02
2024-01-20T07:05:19.448Z,18.88
2024-01-20T07:08:07.699Z,17.10
2024-01-20T07:10:56.452Z,17.25
2024-01-20T07:13:45.033Z,15.90
2024-01-20T07:16:33.160Z,23.38
2024-01-20T07:19:20.876Z,18.20
2024-01-20T07:22:09.483Z,21.45
2024-01-20T07:24:56.968Z,17.77
2024-01-20T07:27:45.846Z,18.00
2024-01-20T07:30:33.740Z,15.82
2024-01-20T07:33:21.693Z,16.42
2024-01-20T07:36:09.629Z,17.08
2024-01-20T07:38:57.252Z,15.18
2024-01-20T07:41:44.845Z,18.52
2024-01-20T07:44:35.131Z,18.88
2024-01-20T07:47:22.858Z,16.75
2024-01-20T07:50:10.918Z,17.55
2024-01-20T07:52:58.900Z,16.02
2024-01-20T07:55:46.332Z,19.88
2024-01-20T07:58:33.801Z,18.27
2024-01-20T08:01:23.434Z,15.73
2024-01-20T08:04:11.624Z,14.75
2024-01-20T08:06:59.145Z,14.88
2024-01-20T08:09:47.335Z,15.07
2024-01-20T08:12:35.206Z,21.23
2024-01-20T08:15:23.900Z,16.95
2024-01-20T08:18:13.237Z,17.80
2024-01-20T08:21:00.798Z,21.25
2024-01-20T08:23:48.459Z,19.75
2024-01-20T08:26:36.020Z,14.25
2024-01-20T08:29:23.591Z,22.08
2024-01-20T08:32:11.651Z,14.88
2024-01-20T08:35:00.676Z,17.20
2024-01-20T08:37:48.325Z,17.15
2024-01-20T08:40:36.174Z,17.83
2024-01-20T08:43:23.933Z,15.02
2024-01-20T08:46:13.282Z,17.65
2024-01-20T08:49:04.944Z,18.27
2024-01-20T08:51:55.762Z,15.73
2024-01-20T08:54:43.918Z,18.60
2024-01-20T08:57:33.576Z,19.17
2024-01-20T09:00:22.428Z,16.40
2024-01-20T09:03:09.987Z,15.77
2024-01-20T09:05:57.919Z,18.42
2024-01-20T09:08:46.885Z,19.45
2024-01-20T09:11:34.942Z,20.80
2024-01-20T09:14:22.472Z,15.60
2024-01-20T09:17:10.391Z,16.50
2024-01-20T09:19:58.180Z,17.35
2024-01-20T09:22:46.101Z,16.88
2024-01-20T09:25:35.128Z,20.77
2024-01-20T09:28:22.600Z,17.58
2024-01-20T09:31:10.162Z,16.58
2024-01-20T09:33:57.788Z,15.18
2024-01-20T09:36:46.454Z,18.58
2024-01-20T09:39:34.238Z,17.80
2024-01-20T09:42:23.777Z,18.98
2024-01-20T09:45:12.547Z,21.63
2024-01-20T09:48:00.391Z,19.50
2024-01-20T09:50:50.187Z,18.80
2024-01-20T09:53:38.105Z,20.88
2024-01-20T09:56:26.484Z,20.42
2024-01-20T09:59:17.105Z,19.60
2024-01-20T10:02:05.775Z,16.95
2024-01-20T10:05:00.097Z,22.95
2024-01-20T10:07:47.698Z,20.35
2024-01-20T10:10:35.750Z,23.00
2024-01-20T10:13:23.430Z,21.13
2024-01-20T10:16:12.315Z,18.50
2024-01-20T10:18:59.805Z,20.83
2024-01-20T10:21:50.965Z,20.20
2024-01-20T10:24:48.479Z,23.00
2024-01-20T10:27:36.413Z,20.33
2024-01-20T10:30:26.172Z,18.95
2024-01-20T10:33:15.782Z,18.63
2024-01-20T10:36:06.264Z,18.25
2024-01-20T10:38:55.965Z,22.38
2024-01-20T10:41:49.566Z,19.30
2024-01-20T10:44:40.919Z,20.15
2024-01-20T10:47:37.555Z,19.73
2024-01-20T10:50:27.392Z,20.40
2024-01-20T10:53:15.307Z,24.40
2024-01-20T10:56:08.147Z,22.33
2024-01-20T10:59:05.996Z,21.98
2024-01-20T11:01:54.053Z,20.48
2024-01-20T11:04:45.927Z,19.23
2024-01-20T11:07:38.718Z,23.95
2024-01-20T11:10:27.108Z,20.58
2024-01-20T11:13:17.307Z,16.30
2024-01-20T11:16:05.480Z,20.00
2024-01-20T11:18:53.012Z,27.77
2024-01-20T11:21:41.020Z,21.67
2024-01-20T11:24:48.801Z,25.58
2024-01-20T11:27:47.455Z,24.17
2024-01-20T11:30:37.552Z,21.60
2024-01-20T11:33:26.461Z,19.52
2024-01-20T11:36:15.738Z,21.27
2024-01-20T11:39:07.042Z,19.80
2024-01-20T11:42:04.670Z,19.48
2024-01-20T11:44:53.757Z,20.33
2024-01-20T11:47:42.182Z,24.63
2024-01-20T11:50:30.157Z,25.90
2024-01-20T11:53:18.392Z,19.70
2024-01-20T11:56:06.609Z,23.88
2024-01-20T11:58:55.468Z,18.65
2024-01-20T12:01:43.440Z,20.20
2024-01-20T12:04:31.283Z,20.73
2024-01-20T12:07:19.952Z,19.65
2024-01-20T12:10:08.622Z,21.38
2024-01-20T12:12:56.340Z,21.40
2024-01-20T12:15:45.183Z,18.08
2024-01-20T12:18:34.229Z,20.27
2024-01-20T12:21:21.939Z,22.63
2024-01-20T12:24:11.642Z,22.55
2024-01-20T12:26:59.376Z,19.52
2024-01-20T12:29:47.156Z,19.95
2024-01-20T12:32:36.058Z,20.65
2024-01-20T12:35:23.889Z,19.15
2024-01-20T12:38:11.717Z,20.83
2024-01-20T12:40:59.270Z,28.25
2024-01-20T12:43:49.985Z,22.17
2024-01-20T12:46:37.865Z,22.75
2024-01-20T12:49:27.035Z,20.73
2024-01-20T12:52:14.873Z,21.60
2024-01-20T12:55:05.394Z,22.67
2024-01-20T12:57:53.032Z,22.92
2024-01-20T13:00:40.554Z,24.00
2024-01-20T13:03:29.795Z,22.17
2024-01-20T13:06:19.347Z,18.10
2024-01-20T13:09:10.070Z,23.63
2024-01-20T13:11:57.701Z,24.83
2024-01-20T13:14:45.141Z,22.10
2024-01-20T13:17:32.764Z,20.30
2024-01-20T13:20:20.944Z,20.58
2024-01-20T13:23:12.905Z,20.20
2024-01-20T13:26:01.965Z,19.40
2024-01-20T13:28:50.792Z,20.30
2024-01-20T13:31:38.365Z,19.50
2024-01-20T13:34:27.118Z,20.88
2024-01-20T13:37:15.012Z,20.95
2024-01-20T13:40:06.297Z,19.00
2024-01-20T13:42:54.208Z,21.30
2024-01-20T13:45:43.900Z,19.17
2024-01-20T13:48:31.763Z,20.63
2024-01-20T13:51:20.510Z,23.98
2024-01-20T13:54:08.700Z,17.80
2024-01-20T13:56:58.244Z,21.20
2024-01-20T13:59:45.695Z,16.45
2024-01-20T14:02:33.354Z,19.73
2024-01-20T14:05:21.076Z,17.05
2024-01-20T14:08:08.638Z,18.30
2024-01-20T14:10:56.115Z,20.02
2024-01-20T14:13:45.201Z,16.85
2024-01-20T14:16:32.900Z,14.30
2024-01-20T14:19:20.927Z,20.67
2024-01-20T14:22:11.837Z,15.48
2024-01-20T14:25:02.130Z,16.85
2024-01-20T14:27:50.680Z,18.55
2024-01-20T14:30:42.065Z,15.50
2024-01-20T14:33:30.664Z,18.40
2024-01-20T14:36:18.439Z,16.00
2024-01-20T14:39:06.157Z,15.57
2024-01-20T14:41:54.131Z,12.73
2024-01-20T14:44:42.441Z,16.38
2024-01-20T14:47:31.749Z,15.85
2024-01-20T14:50:20.245Z,15.55
2024-01-20T14:53:08.033Z,18.35
2024-01-20T14:55:55.565Z,17.00
2024-01-20T14:58:43.172Z,15.00
2024-01-20T15:01:31.118Z,16.27
2024-01-20T15:04:20.347Z,20.15
2024-01-20T15:07:08.207Z,17.05
2024-01-20T15:09:55.943Z,16.52
2024-01-20T15:12:43.689Z,17.30
2024-01-20T15:15:31.296Z,17.92
2024-01-20T15:18:18.989Z,15.05
2024-01-20T15:21:08.393Z,16.95
2024-01-20T15:23:55.769Z,16.23
2024-01-20T15:26:43.229Z,14.95
2024-01-20T15:29:32.116Z,19.77
2024-01-20T15:32:19.879Z,14.05
2024-01-20T15:35:08.771Z,15.95
2024-01-20T15:37:57.756Z,17.88
2024-01-20T15:40:45.977Z,18.42
2024-01-20T15:43:33.741Z,17.80
2024-01-20T15:46:21.318Z,17.40
2024-01-20T15:49:08.996Z,17.13
2024-01-20T15:51:56.713Z,15.98
2024-01-20T15:54:49.014Z,18.90
2024-01-20T15:57:37.359Z,17.23
2024-01-20T16:00:25.873Z,16.08
2024-01-20T16:03:13.513Z,19.05
2024-01-20T16:06:01.852Z,16.58
2024-01-20T16:08:57.586Z,16.60
2024-01-20T16:11:51.550Z,19.27
2024-01-20T16:14:39.073Z,15.80
2024-01-20T16:17:26.555Z,14.93
2024-01-20T16:20:14.967Z,18.15
2024-01-20T16:23:02.656Z,18.30
2024-01-20T16:25:50.362Z,16.95
2024-01-20T16:28:39.132Z,22.33
2024-01-20T16:31:27.038Z,16.92
2024-01-20T16:34:15.555Z,17.30
2024-01-20T16:37:03.315Z,20.05
2024-01-20T16:39:51.736Z,17.25
2024-01-20T16:42:39.520Z,18.10
2024-01-20T16:45:28.714Z,16.33
2024-01-20T16:48:16.362Z,18.50
2024-01-20T16:51:12.666Z,19.10
2024-01-20T16:54:06.741Z,19.05
2024-01-20T16:56:54.653Z,21.90
2024-01-20T16:59:42.465Z,23.38
2024-01-20T17:02:31.553Z,23.35
2024-01-20T17:05:19.518Z,26.65
2024-01-20T17:08:08.082Z,21.17
2024-01-20T17:10:56.170Z,23.98
2024-01-20T17:13:44.893Z,17.92
2024-01-20T17:16:37.053Z,21.23
2024-01-20T17:19:31.797Z,19.97
2024-01-20T17:22:19.477Z,25.13
2024-01-20T17:25:09.056Z,24.83
2024-01-20T17:27:56.596Z,23.27
2024-01-20T17:30:43.976Z,21.88
2024-01-20T17:33:31.627Z,20.17
2024-01-20T17:36:21.053Z,22.58
2024-01-20T17:39:10.702Z,18.95
2024-01-20T17:41:58.813Z,16.58
2024-01-20T17:44:47.430Z,22.42
2024-01-20T17:47:35.687Z,27.20
2024-01-20T17:50:23.582Z,24.08
2024-01-20T17:53:15.081Z,22.13
2024-01-20T17:56:04.291Z,39.42
2024-01-20T17:58:51.998Z,34.25
2024-01-20T18:01:39.492Z,29.85
2024-01-20T18:04:27.156Z,27.42
2024-01-20T18:07:15.068Z,29.90
2024-01-20T18:10:04.147Z,37.22
2024-01-20T18:12:51.925Z,34.03
2024-01-20T18:15:39.662Z,33.13
2024-01-20T18:18:27.658Z,27.27
2024-01-20T18:21:16.696Z,25.70
2024-01-20T18:24:05.338Z,27.02
2024-01-20T18:26:54.232Z,29.17
2024-01-20T18:29:42.027Z,24.52
2024-01-20T18:32:29.853Z,29.60
2024-01-20T18:35:17.710Z,25.15
2024-01-20T18:38:05.757Z,25.73
2024-01-20T18:40:53.243Z,23.08
2024-01-20T18:43:42.142Z,28.15
2024-01-20T18:46:29.908Z,20.42
2024-01-20T18:49:17.616Z,26.92
2024-01-20T18:52:05.771Z,25.17
2024-01-20T18:54:54.986Z,23.40
2024-01-20T18:57:42.560Z,26.75
2024-01-20T19:00:31.569Z,21.17
2024-01-20T19:03:19.837Z,22.77
2024-01-20T19:06:08.077Z,26.38
2024-01-20T19:08:55.924Z,22.77
2024-01-20T19:11:43.283Z,22.88
2024-01-20T19:14:31.193Z,20.33
2024-01-20T19:17:21.170Z,22.88
2024-01-20T19:20:11.590Z,23.23
2024-01-20T19:22:59.239Z,25.10
2024-01-20T19:25:46.599Z,23.42
2024-01-20T19:28:34.344Z,25.08
2024-01-20T19:31:22.461Z,23.15
2024-01-20T19:34:11.760Z,30.45
2024-01-20T19:36:59.549Z,22.33
2024-01-20T19:39:47.575Z,25.90
2024-01-20T19:42:35.425Z,24.70
2024-01-20T19:45:23.064Z,23.50
2024-01-20T19:48:11.001Z,27.73
2024-01-20T19:51:00.207Z,25.85
2024-01-20T19:53:47.877Z,24.85
2024-01-20T19:56:35.407Z,22.80
2024-01-20T19:59:22.969Z,25.00
2024-01-20T20:02:12.314Z,25.50
2024-01-20T20:05:00.116Z,25.13
2024-01-20T20:07:49.112Z,24.90
2024-01-20T20:10:36.568Z,25.08
2024-01-20T20:13:25.033Z,23.48
2024-01-20T20:16:12.677Z,22.98
2024-01-20T20:19:00.275Z,24.13
2024-01-20T20:21:47.827Z,25.35
2024-01-20T20:24:39.245Z,23.52
2024-01-20T20:27:26.965Z,26.67
2024-01-20T20:30:15.040Z,25.92
2024-01-20T20:33:02.983Z,25.40
2024-01-20T20:35:50.665Z,26.42
2024-01-20T20:38:38.316Z,22.90
2024-01-20T20:41:27.297Z,25.10
2024-01-20T20:44:14.803Z,22.80
2024-01-20T20:47:02.431Z,23.92
2024-01-20T20:49:51.491Z,23.27
2024-01-20T20:52:39.991Z,28.60
2024-01-20T20:55:28.702Z,24.45
2024-01-20T20:58:17.482Z,21.15
2024-01-20T21:01:05.574Z,22.92
2024-01-20T21:03:53.564Z,27.65
2024-01-20T21:06:41.933Z,27.23
2024-01-20T21:09:29.929Z,27.30
2024-01-20T21:12:17.749Z,27.15
2024-01-20T21:15:07.479Z,26.95
2024-01-20T21:17:57.601Z,23.70
2024-01-20T21:20:48.097Z,23.58
2024-01-20T21:23:35.668Z,20.50
2024-01-20T21:26:23.739Z,23.88
2024-01-20T21:29:11.405Z,26.90
2024-01-20T21:32:00.424Z,24.05
2024-01-20T21:34:48.153Z,27.88
2024-01-20T21:37:35.970Z,31.58
2024-01-20T21:40:23.863Z,31.50
2024-01-20T21:43:11.401Z,29.50
2024-01-20T21:45:59.337Z,36.80
2024-01-20T21:48:48.409Z,42.00
2024-01-20T21:51:36.029Z,39.47
2024-01-20T21:54:23.535Z,40.58
2024-01-20T21:57:11.122Z,36.72
2024-01-20T21:59:59.011Z,36.92
2024-01-20T22:02:46.362Z,28.80
2024-01-20T22:05:35.204Z,38.72
2024-01-20T22:08:23.358Z,33.72
2024-01-20T22:11:11.138Z,25.42
2024-01-20T22:13:58.831Z,29.17
2024-01-20T22:16:46.351Z,25.77
2024-01-20T22:19:34.454Z,33.83
2024-01-20T22:22:24.373Z,26.67
2024-01-20T22:25:12.605Z,24.15
2024-01-20T22:28:00.402Z,27.70
2024-01-20T22:30:48.260Z,28.23
2024-01-20T22:33:35.902Z,25.65
2024-01-20T22:36:23.633Z,24.05
2024-01-20T22:39:14.426Z,20.80
2024-01-20T22:42:02.326Z,25.58
2024-01-20T22:44:50.105Z,28.02
2024-01-20T22:47:37.971Z,24.38
2024-01-20T22:50:26.116Z,23.52
2024-01-20T22:53:13.807Z,30.92
2024-01-20T22:56:02.762Z,21.45
2024-01-20T22:58:50.287Z,23.35
2024-01-20T23:01:38.289Z,21.33
2024-01-20T23:04:26.612Z,23.65
2024-01-20T23:07:14.228Z,21.70
2024-01-20T23:10:01.920Z,20.65
2024-01-20T23:12:51.109Z,23.23
2024-01-20T23:15:39.013Z,22.25
2024-01-20T23:18:27.038Z,24.13
2024-01-20T23:21:15.119Z,21.88
2024-01-20T23:24:02.861Z,20.98
2024-01-20T23:26:51.127Z,27.13
2024-01-20T23:29:40.274Z,21.92
2024-01-20T23:32:28.256Z,19.30
2024-01-20T23:35:15.713Z,22.38
2024-01-20T23:38:03.722Z,25.25
2024-01-20T23:40:51.560Z,22.20
2024-01-20T23:43:38.965Z,21.48
2024-01-20T23:46:27.801Z,25.73
2024-01-20T23:49:15.449Z,21.80
2024-01-20T23:52:03.678Z,19.98
2024-01-20T23:54:51.281Z,19.65
2024-01-20T23:57:40.362Z,20.08
